Time;durP1;ratioP1;P1;durP2;ratioP2;P2;SDS_P1;SDS_P2;PMS_P1;PMS_P2;Temp;Humidity;BMP_temperature;BMP_pressure;BME280_temperature;BME280_humidity;BME280_pressure;Samples;Min_cycle;Max_cycle;Signal;HPM_P1;HPM_P2
2024/02/01 00:00:56;;;;;;;14.50;6.03;;;;;;;6.36;100.00;103155.47;5034537;28;20530;-73
2024/02/01 00:03:21;;;;;;;8.53;5.27;;;;;;;5.76;100.00;103041.84;5034009;28;20184;-73
2024/02/01 00:05:46;;;;;;;11.47;5.77;;;;;;;6.05;100.00;103108.97;5030976;28;20258;-73
2024/02/01 00:08:12;;;;;;;10.60;5.50;;;;;;;6.24;100.00;103140.41;5034855;28;20192;-73
2024/02/01 00:10:37;;;;;;;10.63;5.30;;;;;;;6.31;100.00;103113.19;5033755;28;20223;-73
2024/02/01 00:13:03;;;;;;;10.23;5.40;;;;;;;6.38;100.00;103091.41;5035021;28;20188;-73
2024/02/01 00:15:29;;;;;;;11.83;5.67;;;;;;;6.58;100.00;103088.06;5034400;28;20542;-74
2024/02/01 00:17:55;;;;;;;10.53;5.70;;;;;;;6.38;100.00;103062.09;5030595;28;20234;-74
2024/02/01 00:20:20;;;;;;;11.00;5.23;;;;;;;6.61;100.00;103106.50;5034471;28;20541;-74
2024/02/01 00:22:46;;;;;;;13.50;6.20;;;;;;;6.59;100.00;103104.91;5034290;28;20188;-73
2024/02/01 00:25:11;;;;;;;13.10;6.37;;;;;;;6.82;100.00;103170.69;5037852;28;20191;-74
2024/02/01 00:27:36;;;;;;;15.50;6.10;;;;;;;6.83;100.00;103179.53;5032004;28;20250;-73
2024/02/01 00:30:02;;;;;;;16.07;6.37;;;;;;;6.57;100.00;103161.03;5030923;28;21252;-73
2024/02/01 00:32:28;;;;;;;15.73;6.30;;;;;;;6.36;100.00;103125.31;5026755;28;20191;-73
2024/02/01 00:34:54;;;;;;;12.00;5.37;;;;;;;6.86;100.00;103227.34;5034720;28;20980;-73
2024/02/01 00:37:19;;;;;;;14.23;5.43;;;;;;;6.93;100.00;103252.56;5038594;28;20477;-73
2024/02/01 00:39:45;;;;;;;12.00;5.30;;;;;;;6.94;100.00;103255.16;5034985;28;20219;-73
2024/02/01 00:42:10;;;;;;;11.27;5.10;;;;;;;6.52;100.00;103173.84;5034060;28;20187;-73
2024/02/01 00:44:35;;;;;;;12.47;5.40;;;;;;;6.02;100.00;103123.34;5034151;28;20710;-73
2024/02/01 00:47:01;;;;;;;15.93;5.17;;;;;;;6.93;100.00;103233.91;5034413;28;20180;-73
2024/02/01 00:49:26;;;;;;;19.10;5.60;;;;;;;6.42;100.00;103164.84;5035952;28;20212;-73
2024/02/01 00:51:52;;;;;;;11.67;5.27;;;;;;;7.11;100.00;103285.88;5034927;28;20307;-74
2024/02/01 00:54:17;;;;;;;20.60;5.70;;;;;;;6.97;100.00;103257.56;5028951;28;20654;-74
2024/02/01 00:56:43;;;;;;;27.83;6.50;;;;;;;6.80;100.00;103226.00;5033622;28;20293;-74
2024/02/01 00:59:08;;;;;;;17.10;5.10;;;;;;;5.96;100.00;103094.50;5031363;28;20268;-73
2024/02/01 01:01:34;;;;;;;22.60;5.00;;;;;;;6.21;100.00;103101.50;5035964;28;20245;-73
2024/02/01 01:03:59;;;;;;;20.50;4.83;;;;;;;7.25;100.00;103298.16;5027430;28;20200;-73
2024/02/01 01:06:24;;;;;;;19.77;4.60;;;;;;;6.42;100.00;103108.84;5027924;28;20200;-73
2024/02/01 01:08:50;;;;;;;31.50;4.50;;;;;;;7.18;100.00;103207.03;5025630;28;20242;-74
2024/02/01 01:11:15;;;;;;;33.37;4.93;;;;;;;7.46;100.00;103252.94;5022282;28;20217;-73
2024/02/01 01:13:41;;;;;;;26.17;5.90;;;;;;;7.37;100.00;103227.81;5025378;28;20566;-73
2024/02/01 01:16:06;;;;;;;28.93;5.53;;;;;;;6.76;100.00;103105.31;5036340;28;20195;-73
2024/02/01 01:18:32;;;;;;;28.03;4.90;;;;;;;7.30;100.00;103199.91;5030613;28;20208;-73
2024/02/01 01:20:57;;;;;;;26.67;4.87;;;;;;;7.46;100.00;103221.78;5035627;28;20191;-73
2024/02/01 01:23:24;;;;;;;25.80;4.43;;;;;;;6.99;100.00;103132.03;5031537;28;20185;-73
2024/02/01 01:25:49;;;;;;;24.03;4.97;;;;;;;7.46;100.00;103223.56;5033157;28;20184;-73
2024/02/01 01:28:14;;;;;;;36.53;5.10;;;;;;;6.68;100.00;103102.41;5025803;28;20788;-73
2024/02/01 01:30:40;;;;;;;24.00;4.33;;;;;;;7.17;100.00;103180.47;5022850;28;20586;-73
2024/02/01 01:33:05;;;;;;;36.07;6.30;;;;;;;6.95;100.00;103160.78;5027800;28;20579;-73
2024/02/01 01:35:31;;;;;;;23.80;4.97;;;;;;;6.88;100.00;103172.88;5032121;28;20196;-71
2024/02/01 01:37:56;;;;;;;23.93;5.20;;;;;;;7.30;100.00;103242.63;5034614;28;20203;-71
2024/02/01 01:40:23;;;;;;;24.67;4.43;;;;;;;6.96;100.00;103223.00;5038129;28;20322;-72
2024/02/01 01:42:48;;;;;;;26.90;4.77;;;;;;;6.72;100.00;103178.53;5031525;28;20271;-71
2024/02/01 01:45:14;;;;;;;28.53;5.63;;;;;;;7.20;100.00;103286.97;5031916;28;20434;-71
2024/02/01 01:47:40;;;;;;;33.50;4.27;;;;;;;6.84;100.00;103234.59;5030486;28;20223;-71
2024/02/01 01:50:06;;;;;;;26.43;5.17;;;;;;;7.01;100.00;103280.38;5021844;28;20311;-72
2024/02/01 01:52:34;;;;;;;29.30;4.50;;;;;;;7.08;100.00;103299.44;5031330;28;20489;-71
2024/02/01 01:55:03;;;;;;;27.43;4.87;;;;;;;6.89;100.00;103305.31;5033695;28;20439;-71
2024/02/01 01:57:29;;;;;;;26.40;4.33;;;;;;;6.55;100.00;103250.97;5030043;28;20524;-72
2024/02/01 01:59:56;;;;;;;26.60;5.43;;;;;;;6.91;100.00;103334.53;5030883;28;20455;-71
2024/02/01 02:02:21;;;;;;;24.80;5.40;;;;;;;6.75;100.00;103340.16;5031364;28;20192;-71
2024/02/01 02:04:51;;;;;;;23.60;4.77;;;;;;;6.49;100.00;103321.59;5036343;28;20442;-71
2024/02/01 02:07:16;;;;;;;25.53;5.30;;;;;;;6.78;100.00;103374.63;5026607;28;20210;-71
2024/02/01 02:09:42;;;;;;;19.97;4.90;;;;;;;6.85;100.00;103386.53;5031300;28;20805;-71
2024/02/01 02:12:10;;;;;;;27.97;4.53;;;;;;;6.55;100.00;103379.78;5033453;28;20192;-71
2024/02/01 02:14:36;;;;;;;28.43;5.57;;;;;;;6.67;100.00;103390.56;5033972;28;20194;-71
2024/02/01 02:17:03;;;;;;;29.07;5.93;;;;;;;6.44;100.00;103344.22;5036138;28;20466;-71
2024/02/01 02:19:28;;;;;;;32.20;5.47;;;;;;;6.72;100.00;103402.59;5034679;28;20462;-71
2024/02/01 02:21:54;;;;;;;27.37;6.03;;;;;;;6.65;100.00;103385.31;5031008;28;20481;-71
2024/02/01 02:24:19;;;;;;;29.10;5.80;;;;;;;6.67;100.00;103412.72;5036589;28;20662;-71
2024/02/01 02:26:47;;;;;;;28.83;5.60;;;;;;;6.70;100.00;103406.31;5036736;28;20192;-71
2024/02/01 02:29:15;;;;;;;30.67;4.77;;;;;;;6.56;100.00;103418.81;5033112;28;20581;-72
2024/02/01 02:31:47;;;;;;;30.73;5.63;;;;;;;6.62;100.00;103416.69;5029150;28;20450;-71
2024/02/01 02:34:13;;;;;;;23.23;4.50;;;;;;;6.45;100.00;103396.56;5036665;28;20450;-71
2024/02/01 02:36:39;;;;;;;23.33;5.07;;;;;;;6.48;100.00;103407.00;5037887;28;20447;-71
2024/02/01 02:39:05;;;;;;;28.93;4.60;;;;;;;6.06;100.00;103319.31;5036343;28;20223;-71
2024/02/01 02:44:10;;;;;;;33.77;5.10;;;;;;;4.46;100.00;103089.13;5019622;28;20209;-75
2024/02/01 02:46:48;;;;;;;24.10;4.83;;;;;;;5.21;100.00;103199.19;5018784;28;20449;-75
2024/02/01 02:49:18;;;;;;;32.13;6.00;;;;;;;4.99;100.00;103202.47;5004070;28;20461;-75
2024/02/01 02:51:56;;;;;;;24.50;5.17;;;;;;;4.63;100.00;103112.75;5014542;28;20491;-75
2024/02/01 02:54:29;;;;;;;25.70;5.23;;;;;;;4.71;100.00;103144.97;5015676;28;20783;-74
2024/02/01 02:57:06;;;;;;;37.63;6.70;;;;;;;4.07;100.00;103032.38;5016065;28;20434;-75
2024/02/01 02:59:47;;;;;;;;;;;;;;;;;;;;;
2024/02/01 03:02:28;;;;;;;28.97;5.70;;;;;;;5.20;100.00;103258.66;5014063;28;20910;-75
2024/02/01 03:05:08;;;;;;;38.17;7.07;;;;;;;4.77;100.00;103204.84;5009082;28;20439;-74
2024/02/01 03:07:41;;;;;;;27.07;5.40;;;;;;;4.10;100.00;103111.03;5007568;28;20432;-75
2024/02/01 03:10:20;;;;;;;;;;;;;;;;;;;;;
2024/02/01 03:12:54;;;;;;;23.40;5.40;;;;;;;3.82;100.00;103092.44;5014821;28;20439;-75
2024/02/01 03:15:26;;;;;;;28.87;5.10;;;;;;;3.85;100.00;103105.50;5011287;28;20426;-75
2024/02/01 03:18:09;;;;;;;;;;;;;;;;;;;;;
2024/02/01 03:20:37;;;;;;;28.37;4.80;;;;;;;3.71;100.00;103115.31;5015036;28;20438;-75
2024/02/01 03:23:16;;;;;;;23.17;4.00;;;;;;;4.48;100.00;103255.50;5012218;28;20932;-75
2024/02/01 03:25:56;;;;;;;;;;;;;;;;;;;;;
2024/02/01 03:28:30;;;;;;;27.10;4.90;;;;;;;5.37;100.00;103337.38;5012998;28;20433;-74
2024/02/01 03:31:06;;;;;;;26.17;5.53;;;;;;;5.14;100.00;103311.44;5014469;28;20499;-75
2024/02/01 03:33:47;;;;;;;29.27;5.80;;;;;;;4.45;100.00;103222.94;5015478;28;20951;-74
2024/02/01 03:36:17;;;;;;;30.57;5.63;;;;;;;3.67;100.00;103082.78;5013749;28;20542;-75
2024/02/01 03:38:54;;;;;;;23.90;4.40;;;;;;;4.67;100.00;103286.19;5012776;28;20510;-74
2024/02/01 03:41:22;;;;;;;28.67;5.13;;;;;;;4.01;100.00;103149.66;5011214;28;20447;-74
2024/02/01 03:43:58;;;;;;;30.87;5.40;;;;;;;4.91;100.00;103302.34;5014832;28;20467;-74
2024/02/01 03:46:31;;;;;;;22.13;4.47;;;;;;;5.12;100.00;103321.34;5010280;28;20444;-75
2024/02/01 03:49:02;;;;;;;39.73;5.93;;;;;;;4.30;100.00;103161.03;5012045;28;20577;-74
2024/02/01 03:51:38;;;;;;;33.80;5.57;;;;;;;4.85;100.00;103261.03;5011877;28;20439;-75
2024/02/01 03:54:15;;;;;;;25.37;5.33;;;;;;;4.25;100.00;103248.13;5011666;28;20812;-75
2024/02/01 03:56:54;;;;;;;29.33;4.97;;;;;;;4.07;100.00;103134.16;5008729;28;20476;-75
2024/02/01 03:59:29;;;;;;;31.13;5.20;;;;;;;4.07;100.00;103186.44;5012472;28;20502;-75
2024/02/01 04:02:08;;;;;;;31.00;4.63;;;;;;;3.29;100.00;103003.84;5007579;28;20534;-75
2024/02/01 04:04:55;;;;;;;;;;;;;;;;;;;;;
2024/02/01 04:07:31;;;;;;;26.37;4.33;;;;;;;4.73;100.00;103299.94;5012138;28;20423;-75
2024/02/01 04:10:10;;;;;;;29.93;4.63;;;;;;;4.04;100.00;103181.31;5016914;28;20573;-75
2024/02/01 04:12:44;;;;;;;28.93;4.70;;;;;;;4.22;100.00;103243.91;5014428;28;20999;-75
2024/02/01 04:15:22;;;;;;;;;;;;;;;;;;;;;
2024/02/01 04:17:50;;;;;;;21.80;3.80;;;;;;;4.27;100.00;103182.50;5020588;28;20983;-75
2024/02/01 04:20:29;;;;;;;31.97;5.23;;;;;;;3.95;100.00;103172.13;5020041;28;20459;-75
2024/02/01 04:23:09;;;;;;;22.50;4.57;;;;;;;3.93;100.00;103120.06;5015405;28;20432;-74
2024/02/01 04:25:45;;;;;;;27.70;5.00;;;;;;;4.55;100.00;103226.72;5015098;28;20454;-75
2024/02/01 04:28:22;;;;;;;29.80;5.10;;;;;;;3.60;100.00;103073.53;5013430;28;20431;-74
2024/02/01 04:30:56;;;;;;;26.53;5.20;;;;;;;4.19;100.00;103065.25;5013079;28;20438;-75
2024/02/01 04:33:36;;;;;;;26.87;5.97;;;;;;;3.49;100.00;102946.84;5011467;28;20531;-74
2024/02/01 04:36:16;;;;;;;23.77;4.20;;;;;;;4.72;100.00;103137.88;5010693;28;20440;-75
2024/02/01 04:38:49;;;;;;;24.23;4.67;;;;;;;4.71;100.00;103059.88;5011022;28;20556;-75
2024/02/01 04:41:22;;;;;;;28.37;5.43;;;;;;;3.44;100.00;102872.00;5013337;28;20511;-75
2024/02/01 04:44:00;;;;;;;;;;;;;;;;;;;;;
2024/02/01 04:46:30;;;;;;;27.10;5.20;;;;;;;3.65;100.00;102861.78;5013946;28;20414;-75
2024/02/01 04:49:03;;;;;;;29.83;5.23;;;;;;;4.92;100.00;102983.09;5013530;28;20874;-75
2024/02/01 04:51:41;;;;;;;26.47;5.30;;;;;;;4.88;100.00;103044.59;5011048;28;20440;-75
2024/02/01 04:54:09;;;;;;;31.83;5.77;;;;;;;5.17;100.00;103014.09;5014726;28;20431;-74
2024/02/01 04:56:43;;;;;;;22.67;5.10;;;;;;;3.87;100.00;102757.59;5012073;28;20424;-75
2024/02/01 04:59:24;;;;;;;32.47;5.43;;;;;;;4.68;100.00;102850.09;5011793;28;20810;-75
2024/02/01 05:01:56;;;;;;;23.20;5.10;;;;;;;4.34;100.00;102841.06;5006081;28;20497;-75
2024/02/01 05:04:30;;;;;;;29.90;5.20;;;;;;;3.95;100.00;102765.88;5010975;28;20434;-75
2024/02/01 05:07:11;;;;;;;27.70;4.90;;;;;;;4.51;100.00;102790.22;5016198;28;20427;-75
2024/02/01 05:09:45;;;;;;;36.00;6.60;;;;;;;3.61;100.00;102670.03;5010315;28;20460;-74
2024/02/01 05:12:23;;;;;;;;;;;;;;;;;;;;;
2024/02/01 05:14:56;;;;;;;27.37;4.77;;;;;;;3.92;100.00;102608.63;5011307;28;20432;-75
2024/02/01 05:17:24;;;;;;;29.10;6.37;;;;;;;3.03;100.00;102543.34;5009172;28;20550;-75
2024/02/01 05:20:00;;;;;;;43.47;6.13;;;;;;;3.41;100.00;102545.91;5013077;28;20448;-74
2024/02/01 05:22:30;;;;;;;34.87;5.00;;;;;;;4.73;100.00;102725.66;5016864;28;20429;-75
2024/02/01 05:25:30;;;;;;;38.27;6.60;;;;;;;3.67;100.00;102581.19;5012506;28;20923;-75
2024/02/01 05:27:59;;;;;;;32.60;6.13;;;;;;;2.99;100.00;102406.69;5014609;28;20436;-75
2024/02/01 05:30:30;;;;;;;28.70;5.03;;;;;;;3.94;100.00;102565.06;5015041;28;20500;-75
2024/02/01 05:33:08;;;;;;;;;;;;;;;;;;;;;
2024/02/01 05:35:47;;;;;;;29.92;6.10;;;;;;;4.41;100.00;102639.53;5015982;28;20430;-75
2024/02/01 05:38:28;;;;;;;;;;;;;;;;;;;;;
2024/02/01 05:41:01;;;;;;;30.00;4.37;;;;;;;3.75;100.00;102554.94;5013820;28;20503;-75
2024/02/01 05:43:37;;;;;;;33.90;5.70;;;;;;;4.80;100.00;102792.50;5008139;28;20944;-74
2024/02/01 05:46:16;;;;;;;31.33;5.43;;;;;;;4.36;100.00;102718.72;5014837;28;20487;-75
2024/02/01 05:49:40;;;;;;;24.50;5.90;;;;;;;5.18;100.00;102925.38;5021200;28;20462;-74
2024/02/01 05:52:12;;;;;;;31.00;5.53;;;;;;;4.26;100.00;102759.25;5012751;28;20515;-75
2024/02/01 05:54:55;;;;;;;43.73;6.50;;;;;;;3.59;100.00;102722.41;5014653;28;20486;-75
2024/02/01 05:57:25;;;;;;;23.47;4.87;;;;;;;3.61;100.00;102749.66;5010144;28;20485;-74
2024/02/01 05:59:55;;;;;;;35.93;7.43;;;;;;;3.19;100.00;102697.78;5013067;28;20990;-75
2024/02/01 06:02:25;;;;;;;29.60;5.67;;;;;;;3.75;100.00;102830.97;5019657;28;20431;-75
2024/02/01 06:05:01;;;;;;;31.50;5.20;;;;;;;4.08;100.00;102872.09;5020440;28;20423;-75
2024/02/01 06:07:31;;;;;;;29.00;5.20;;;;;;;2.58;100.00;102697.44;5017003;28;20431;-75
2024/02/01 06:10:06;;;;;;;32.93;5.37;;;;;;;4.07;100.00;102958.03;5013158;28;20485;-74
2024/02/01 06:12:37;;;;;;;27.03;5.70;;;;;;;3.52;100.00;102929.88;5026010;28;20441;-75
2024/02/01 06:15:08;;;;;;;34.00;6.10;;;;;;;2.66;100.00;102795.81;5023752;28;20443;-74
2024/02/01 06:17:48;;;;;;;24.53;4.40;;;;;;;2.01;100.00;102714.34;5019328;28;20463;-74
2024/02/01 06:20:23;;;;;;;31.50;5.30;;;;;;;3.21;100.00;102965.50;5022996;28;21743;-75
2024/02/01 06:22:51;;;;;;;28.97;5.03;;;;;;;3.22;100.00;102962.75;5015660;28;20513;-75
2024/02/01 06:25:21;;;;;;;23.10;5.37;;;;;;;3.99;100.00;103104.63;5013133;28;20430;-75
2024/02/01 06:27:59;;;;;;;31.47;5.53;;;;;;;2.63;100.00;102872.88;5013012;28;20565;-75
2024/02/01 06:30:40;;;;;;;;;;;;;;;;;;;;;
2024/02/01 06:33:16;;;;;;;36.25;7.00;;;;;;;3.32;100.00;103027.53;5015776;28;20433;-75
2024/02/01 06:35:54;;;;;;;30.70;5.50;;;;;;;3.27;100.00;103005.78;5019468;28;21912;-75
2024/02/01 06:38:41;;;;;;;32.47;5.60;;;;;;;3.85;100.00;103089.59;5018278;28;21000;-75
2024/02/01 06:41:28;;;;;;;31.17;5.63;;;;;;;3.82;100.00;103089.78;5019416;28;20778;-75
2024/02/01 06:44:20;;;;;;;32.60;6.87;;;;;;;3.39;100.00;103041.28;5014630;28;20438;-75
2024/02/01 06:55:24;;;;;;;26.07;4.93;;;;;;;2.64;100.00;102995.59;5015478;28;20462;-75
2024/02/01 07:06:35;;;;;;;37.87;7.07;;;;;;;2.68;100.00;103064.19;5013696;28;20428;-75
2024/02/01 07:09:27;;;;;;;31.27;5.10;;;;;;;3.76;100.00;103199.03;5015019;28;20454;-75
2024/02/01 07:12:09;;;;;;;;;;;;;;;;;;;;;
2024/02/01 07:17:43;;;;;;;28.45;5.60;;;;;;;2.19;100.00;102960.34;4989287;28;20412;-74
2024/02/01 07:20:58;;;;;;;35.07;6.80;;;;;;;3.22;100.00;103182.06;5014840;28;20291;-75
2024/02/01 07:26:16;;;;;;;32.10;7.00;;;;;;;3.30;100.00;103233.69;4988056;28;20489;-74
2024/02/01 07:59:47;;;;;;;29.50;5.70;;;;;;;1.90;100.00;103134.94;5020235;28;21224;-74
2024/02/01 08:02:34;;;;;;;;;;;;;;;;;;;;;
2024/02/01 08:08:01;;;;;;;;;;;;;;;;;;;;;
2024/02/01 08:10:37;;;;;;;28.23;6.03;;;;;;;2.06;100.00;103161.44;5013100;28;20925;-75
2024/02/01 08:13:08;;;;;;;31.37;5.20;;;;;;;3.41;100.00;103421.41;5013541;28;20219;-75
2024/02/01 08:15:52;;;;;;;;;;;;;;;;;;;;;
2024/02/01 08:18:54;;;;;;;27.10;5.60;;;;;;;2.34;100.00;103149.25;5081814;28;20571;-75
2024/02/01 08:21:20;;;;;;;27.05;5.60;;;;;;;2.75;100.00;103278.47;5077573;28;20934;-75
2024/02/01 08:24:09;;;;;;;;;;;;;;;;;;;;;
2024/02/01 08:26:43;;;;;;;29.25;6.03;;;;;;;2.07;100.00;103200.19;5082123;28;20432;-75
2024/02/01 08:29:13;;;;;;;32.00;6.07;;;;;;;1.79;100.00;103117.03;5092934;28;20718;-76
2024/02/01 08:31:53;;;;;;;;;;;;;;;;;;;;;
2024/02/01 08:34:19;;;;;;;28.58;6.55;;;;;;;3.13;100.00;103346.09;5079900;28;20424;-75
2024/02/01 08:36:45;;;;;;;26.23;5.10;;;;;;;2.86;100.00;103292.81;5079664;28;20174;-75
2024/02/01 08:39:15;;;;;;;18.27;4.13;;;;;;;3.74;100.00;103468.19;5079001;28;20207;-75
2024/02/01 08:41:42;;;;;;;26.02;5.63;;;;;;;3.54;100.00;103395.03;5095399;28;20762;-75
2024/02/01 08:44:10;;;;;;;33.10;5.80;;;;;;;3.00;100.00;103341.56;5080565;28;20182;-75
2024/02/01 08:46:40;;;;;;;26.33;5.33;;;;;;;3.28;100.00;103344.34;5080547;28;20574;-75
2024/02/01 08:49:15;;;;;;;26.70;5.40;;;;;;;3.24;100.00;103350.78;5080697;28;20241;-75
2024/02/01 08:51:43;;;;;;;28.20;6.30;;;;;;;2.83;100.00;103274.44;5081208;28;20405;-75
2024/02/01 08:54:12;;;;;;;28.60;6.23;;;;;;;2.22;100.00;103134.91;5079661;28;20236;-75
2024/02/01 08:56:40;;;;;;;29.50;5.40;;;;;;;2.80;100.00;103208.38;5082402;28;20438;-75
2024/02/01 08:59:22;;;;;;;31.33;4.87;;;;;;;2.63;100.00;103174.06;5080760;28;20930;-75
2024/02/01 09:02:15;;;;;;;33.53;5.70;;;;;;;3.61;100.00;103308.78;5081115;28;20459;-75
2024/02/01 09:04:36;;;;;;;27.67;6.15;;;;;;;3.13;100.00;103178.16;5076948;28;20429;-75
2024/02/01 09:07:03;;;;;;;26.47;5.20;;;;;;;2.76;100.00;103161.78;5080230;28;20206;-75
2024/02/01 09:09:31;;;;;;;32.50;6.70;;;;;;;2.75;100.00;103138.03;5080835;28;20187;-75
2024/02/01 09:12:00;;;;;;;25.73;5.10;;;;;;;4.19;100.00;103333.53;5081412;28;20495;-73
2024/02/01 09:14:29;;;;;;;36.10;5.87;;;;;;;3.07;100.00;103138.75;5082296;28;20431;-73
2024/02/01 09:16:55;;;;;;;22.60;4.60;;;;;;;4.79;100.00;103402.38;5081655;28;20873;-72
2024/02/01 09:19:21;;;;;;;32.27;5.80;;;;;;;4.76;100.00;103390.13;5080154;28;20470;-72
2024/02/01 09:21:47;;;;;;;22.17;5.30;;;;;;;5.26;100.00;103490.72;5077405;28;20436;-72
2024/02/01 09:24:13;;;;;;;29.57;5.90;;;;;;;5.16;100.00;103486.00;5077863;28;20183;-72
2024/02/01 09:26:41;;;;;;;30.97;6.53;;;;;;;4.60;100.00;103375.25;5080637;28;20691;-73
2024/02/01 09:29:11;;;;;;;25.90;5.13;;;;;;;5.19;100.00;103487.63;5067120;28;20307;-72
2024/02/01 09:31:37;;;;;;;27.57;5.30;;;;;;;5.02;100.00;103485.19;5067480;28;20437;-73
2024/02/01 09:34:04;;;;;;;30.33;6.30;;;;;;;4.47;100.00;103353.94;5067001;28;20441;-72
2024/02/01 09:36:30;;;;;;;28.50;5.87;;;;;;;5.55;100.00;103536.75;5064986;28;20483;-73
2024/02/01 09:38:56;;;;;;;32.60;5.77;;;;;;;5.76;100.00;103561.16;5068734;28;20449;-72
2024/02/01 09:41:22;;;;;;;30.90;6.17;;;;;;;5.67;100.00;103546.63;5065239;28;20486;-72
2024/02/01 09:43:52;;;;;;;22.03;4.53;;;;;;;5.20;100.00;103449.41;5065696;28;20718;-72
2024/02/01 09:46:20;;;;;;;30.73;5.40;;;;;;;5.26;100.00;103449.00;5063541;28;20457;-72
2024/02/01 09:48:47;;;;;;;34.77;5.87;;;;;;;5.27;100.00;103413.47;5065619;28;20442;-73
2024/02/01 09:51:19;;;;;;;30.40;6.17;;;;;;;5.66;100.00;103425.91;5066297;28;20442;-72
2024/02/01 09:53:48;;;;;;;26.73;5.93;;;;;;;6.07;100.00;103469.38;5065830;28;20437;-72
2024/02/01 09:56:13;;;;;;;31.67;7.03;;;;;;;6.12;100.00;103445.94;5070231;28;20432;-72
2024/02/01 09:58:41;;;;;;;38.07;6.40;;;;;;;6.22;100.00;103414.16;5069420;28;20460;-72
2024/02/01 10:01:08;;;;;;;29.20;4.70;;;;;;;5.87;100.00;103324.19;5061501;28;20198;-72
2024/02/01 10:03:34;;;;;;;23.27;5.40;;;;;;;6.28;100.00;103347.13;5062757;28;20421;-72
2024/02/01 10:06:04;;;;;;;29.17;5.50;;;;;;;6.34;100.00;103336.03;5063494;28;20444;-72
2024/02/01 10:08:33;;;;;;;44.27;5.87;;;;;;;6.54;100.00;103372.78;5063234;28;20202;-75
2024/02/01 10:11:01;;;;;;;34.00;5.77;;;;;;;5.73;100.00;103268.38;5061595;28;20448;-72
2024/02/01 10:13:30;;;;;;;41.03;5.93;;;;;;;6.48;100.00;103359.00;5064174;28;20414;-72
2024/02/01 10:16:01;;;;;;;34.47;7.67;;;;;;;5.84;100.00;103271.13;5065302;28;20432;-72
2024/02/01 10:18:27;;;;;;;36.03;5.80;;;;;;;6.48;100.00;103274.56;5063365;28;20475;-72
2024/02/01 10:20:54;;;;;;;42.23;6.07;;;;;;;6.42;100.00;103245.69;5066203;28;20417;-72
2024/02/01 10:23:20;;;;;;;34.27;5.30;;;;;;;5.95;100.00;103127.41;5066242;28;20210;-72
2024/02/01 10:25:47;;;;;;;41.27;6.80;;;;;;;6.68;100.00;103240.22;5062247;28;20534;-72
2024/02/01 10:28:18;;;;;;;35.47;5.50;;;;;;;6.76;100.00;103251.16;5061806;28;20465;-73
2024/02/01 10:30:49;;;;;;;35.40;6.20;;;;;;;6.43;100.00;103166.56;5064739;28;20502;-72
2024/02/01 10:33:19;;;;;;;37.13;7.13;;;;;;;6.87;100.00;103213.88;5063978;28;20442;-72
2024/02/01 10:35:49;;;;;;;31.43;6.57;;;;;;;7.11;100.00;103234.31;5061923;28;20802;-72
2024/02/01 10:38:26;;;;;;;27.23;6.00;;;;;;;7.04;100.00;103179.72;5062748;28;20461;-72
2024/02/01 10:40:52;;;;;;;38.63;6.77;;;;;;;7.22;100.00;103167.59;5063903;28;20448;-72
2024/02/01 10:43:21;;;;;;;30.37;5.20;;;;;;;6.52;100.00;103020.06;5065300;28;20437;-72
2024/02/01 10:46:12;;;;;;;24.03;5.90;;;;;;;7.31;100.00;103140.19;5064859;28;20433;-72
2024/02/01 10:49:19;;;;;;;27.37;5.03;;;;;;;6.97;100.00;103020.09;5061951;28;20544;-72
2024/02/01 10:51:46;;;;;;;36.97;5.33;;;;;;;6.65;100.00;102888.44;5070350;28;20425;-72
2024/02/01 10:54:13;;;;;;;24.73;5.70;;;;;;;6.77;100.00;102909.66;5068150;28;20508;-72
2024/02/01 10:56:39;;;;;;;25.80;5.40;;;;;;;7.14;100.00;102933.31;5062571;28;20437;-72
2024/02/01 10:59:08;;;;;;;35.03;6.47;;;;;;;7.44;100.00;102895.28;5063178;28;20548;-73
2024/02/01 11:01:36;;;;;;;37.23;6.90;;;;;;;6.88;100.00;102803.88;5059988;28;20200;-72
2024/02/01 11:04:05;;;;;;;25.73;5.20;;;;;;;7.39;100.00;102872.59;5064350;28;20425;-72
2024/02/01 11:06:36;;;;;;;32.53;6.73;;;;;;;7.47;100.00;102857.63;5064471;28;20453;-72
2024/02/01 11:09:18;;;;;;;34.53;6.40;;;;;;;7.51;100.00;102839.50;5062289;28;20458;-72
2024/02/01 11:11:48;;;;;;;30.80;5.50;;;;;;;7.52;100.00;102763.78;5066658;28;20949;-72
2024/02/01 11:14:38;;;;;;;30.27;5.93;;;;;;;7.48;100.00;102691.09;5063731;28;20429;-72
2024/02/01 11:17:03;;;;;;;37.43;6.90;;;;;;;7.75;100.00;102719.03;5062107;28;20449;-72
2024/02/01 11:19:28;;;;;;;29.27;5.97;;;;;;;7.81;100.00;102702.50;5062647;28;20428;-72
2024/02/01 11:22:01;;;;;;;28.50;5.67;;;;;;;7.80;100.00;102630.47;5062957;28;20832;-72
2024/02/01 11:24:28;;;;;;;29.27;5.83;;;;;;;7.88;100.00;102660.88;5064039;28;20665;-73
2024/02/01 11:26:57;;;;;;;31.93;6.03;;;;;;;7.55;100.00;102549.03;5065422;28;20457;-73
2024/02/01 11:29:25;;;;;;;35.23;6.90;;;;;;;8.01;100.00;102628.53;5063030;28;20867;-73
2024/02/01 11:31:57;;;;;;;31.83;5.67;;;;;;;8.09;100.00;102673.31;5063864;28;20441;-72
2024/02/01 11:34:27;;;;;;;23.40;5.40;;;;;;;7.70;100.00;102545.00;5063548;28;20510;-73
2024/02/01 11:36:56;;;;;;;34.27;6.53;;;;;;;8.17;100.00;102560.34;5062357;28;20440;-72
2024/02/01 11:39:22;;;;;;;34.77;5.70;;;;;;;7.63;100.00;102448.53;5065267;28;20421;-72
2024/02/01 11:41:51;;;;;;;40.65;6.70;;;;;;;7.81;100.00;102447.84;5065889;28;20510;-73
2024/02/01 11:44:18;;;;;;;30.00;5.80;;;;;;;7.97;100.00;102440.09;5062577;28;20434;-72
2024/02/01 11:46:48;;;;;;;30.50;5.57;;;;;;;8.52;100.00;102439.44;5065453;28;20970;-73
2024/02/01 11:49:19;;;;;;;28.93;5.83;;;;;;;8.33;100.00;102363.63;5063184;28;20445;-72
2024/02/01 11:52:13;;;;;;;31.67;6.20;;;;;;;8.37;100.00;102378.38;5063659;28;20883;-72
2024/02/01 11:54:51;;;;;;;25.27;5.10;;;;;;;8.29;100.00;102401.50;5061819;28;20795;-71
2024/02/01 11:57:22;;;;;;;40.83;7.73;;;;;;;8.60;100.00;102421.69;5063046;28;20522;-72
2024/02/01 11:59:48;;;;;;;28.73;5.43;;;;;;;8.49;100.00;102413.84;5065010;28;20450;-73
2024/02/01 12:02:17;;;;;;;24.23;5.97;;;;;;;8.32;100.00;102406.53;5065768;28;20844;-72
2024/02/01 12:04:45;;;;;;;27.10;5.73;;;;;;;8.04;100.00;102304.06;5067920;28;20430;-72
2024/02/01 12:07:14;;;;;;;32.47;6.37;;;;;;;8.06;100.00;102281.56;5058350;28;20615;-72
2024/02/01 12:09:40;;;;;;;30.77;6.40;;;;;;;8.32;100.00;102289.75;5062658;28;21040;-73
2024/02/01 12:12:06;;;;;;;31.37;6.77;;;;;;;8.31;100.00;102281.91;5064573;28;20437;-73
2024/02/01 12:14:33;;;;;;;28.07;4.80;;;;;;;8.20;100.00;102264.22;5064403;28;20446;-72
2024/02/01 12:17:02;;;;;;;32.93;5.73;;;;;;;8.05;100.00;102261.19;5060529;28;20511;-73
2024/02/01 12:19:37;;;;;;;38.20;6.47;;;;;;;8.55;100.00;102345.53;5063932;28;20460;-72
2024/02/01 12:22:13;;;;;;;35.07;6.60;;;;;;;7.92;100.00;102352.34;5060867;28;20443;-72
2024/02/01 12:24:39;;;;;;;24.17;5.10;;;;;;;8.98;100.00;102385.00;5061684;28;20457;-72
2024/02/01 12:27:06;;;;;;;36.53;5.47;;;;;;;9.02;100.00;102334.69;5066086;28;20481;-72
2024/02/01 12:29:32;;;;;;;30.13;5.63;;;;;;;8.95;100.00;102317.56;5062345;28;20437;-72
2024/02/01 12:31:57;;;;;;;33.80;6.00;;;;;;;8.01;100.00;102216.19;5064269;28;20512;-72
2024/02/01 12:34:23;;;;;;;24.40;5.00;;;;;;;8.20;100.00;102242.81;5061907;28;20538;-72
2024/02/01 12:36:49;;;;;;;36.17;6.50;;;;;;;8.97;100.00;102294.19;5062294;28;20207;-72
2024/02/01 12:39:15;;;;;;;22.40;4.67;;;;;;;8.70;100.00;102258.44;5059848;28;20202;-72
2024/02/01 12:41:41;;;;;;;30.83;5.57;;;;;;;8.85;100.00;102263.28;5062737;28;20520;-72
2024/02/01 12:44:07;;;;;;;24.97;5.10;;;;;;;9.14;100.00;102269.25;5061390;28;20587;-72
2024/02/01 12:46:33;;;;;;;35.83;5.00;;;;;;;9.00;100.00;102241.19;5065802;28;20965;-72
2024/02/01 12:48:58;;;;;;;30.10;6.60;;;;;;;9.38;100.00;102240.97;5060419;28;20206;-72
2024/02/01 12:51:27;;;;;;;29.07;5.67;;;;;;;8.88;100.00;102188.03;5065037;28;20514;-72
2024/02/01 12:53:55;;;;;;;26.47;4.70;;;;;;;9.98;100.00;102273.16;5062266;28;20188;-72
2024/02/01 12:56:23;;;;;;;29.60;6.60;;;;;;;10.13;100.00;102148.22;5063449;28;20429;-73
2024/02/01 12:58:50;;;;;;;33.57;6.60;;;;;;;10.73;100.00;102063.09;5064263;28;20441;-72